sensor_id;sensor_type;location;lat;lon;timestamp;P1;durP1;ratioP1;P2;durP2;ratioP2
17032;SDS011;63208;52.178;21.016;2022-12-07T00:01:39;19.13;;;9.63;;
17032;SDS011;63208;52.178;21.016;2022-12-07T00:04:08;18.73;;;9.43;;
17032;SDS011;63208;52.178;21.016;2022-12-07T00:06:36;22.97;;;11.67;;
17032;SDS011;63208;52.178;21.016;2022-12-07T00:09:05;20.53;;;10.83;;
17032;SDS011;63208;52.178;21.016;2022-12-07T00:11:35;21.70;;;10.33;;
17032;SDS011;63208;52.178;21.016;2022-12-07T00:14:04;24.63;;;10.60;;
17032;SDS011;63208;52.178;21.016;2022-12-07T00:16:33;18.40;;;10.93;;
17032;SDS011;63208;52.178;21.016;2022-12-07T00:19:00;19.17;;;9.63;;
17032;SDS011;63208;52.178;21.016;2022-12-07T00:21:28;15.17;;;8.17;;
17032;SDS011;63208;52.178;21.016;2022-12-07T00:23:57;22.00;;;9.60;;
17032;SDS011;63208;52.178;21.016;2022-12-07T00:26:25;14.60;;;7.97;;
17032;SDS011;63208;52.178;21.016;2022-12-07T00:28:54;21.13;;;10.07;;
17032;SDS011;63208;52.178;21.016;2022-12-07T00:31:24;18.97;;;9.17;;
17032;SDS011;63208;52.178;21.016;2022-12-07T00:33:52;17.10;;;9.60;;
17032;SDS011;63208;52.178;21.016;2022-12-07T00:36:20;16.33;;;9.53;;
17032;SDS011;63208;52.178;21.016;2022-12-07T00:38:48;17.40;;;8.73;;
17032;SDS011;63208;52.178;21.016;2022-12-07T00:41:16;19.13;;;10.47;;
17032;SDS011;63208;52.178;21.016;2022-12-07T00:43:44;12.20;;;8.50;;
17032;SDS011;63208;52.178;21.016;2022-12-07T00:46:12;15.03;;;9.30;;
17032;SDS011;63208;52.178;21.016;2022-12-07T00:48:41;19.40;;;9.57;;
17032;SDS011;63208;52.178;21.016;2022-12-07T00:51:09;17.77;;;8.93;;
17032;SDS011;63208;52.178;21.016;2022-12-07T00:53:37;19.53;;;9.03;;
17032;SDS011;63208;52.178;21.016;2022-12-07T00:56:05;20.63;;;9.33;;
17032;SDS011;63208;52.178;21.016;2022-12-07T00:58:32;22.37;;;11.20;;
17032;SDS011;63208;52.178;21.016;2022-12-07T01:00:59;18.27;;;10.13;;
17032;SDS011;63208;52.178;21.016;2022-12-07T01:03:27;30.07;;;9.20;;
17032;SDS011;63208;52.178;21.016;2022-12-07T01:05:55;16.67;;;8.80;;
17032;SDS011;63208;52.178;21.016;2022-12-07T01:08:23;14.03;;;8.67;;
17032;SDS011;63208;52.178;21.016;2022-12-07T01:10:58;20.20;;;10.97;;
17032;SDS011;63208;52.178;21.016;2022-12-07T01:13:25;20.33;;;10.53;;
17032;SDS011;63208;52.178;21.016;2022-12-07T01:15:55;20.83;;;10.03;;
17032;SDS011;63208;52.178;21.016;2022-12-07T01:18:23;14.43;;;7.53;;
17032;SDS011;63208;52.178;21.016;2022-12-07T01:20:58;26.80;;;12.07;;
17032;SDS011;63208;52.178;21.016;2022-12-07T01:23:26;27.33;;;11.83;;
17032;SDS011;63208;52.178;21.016;2022-12-07T01:25:56;26.33;;;12.07;;
17032;SDS011;63208;52.178;21.016;2022-12-07T01:28:23;18.73;;;9.57;;
17032;SDS011;63208;52.178;21.016;2022-12-07T01:31:01;19.03;;;8.53;;
17032;SDS011;63208;52.178;21.016;2022-12-07T01:33:29;13.60;;;8.40;;
17032;SDS011;63208;52.178;21.016;2022-12-07T01:36:02;15.20;;;8.13;;
17032;SDS011;63208;52.178;21.016;2022-12-07T01:38:30;15.70;;;7.83;;
17032;SDS011;63208;52.178;21.016;2022-12-07T01:40:57;18.60;;;8.47;;
17032;SDS011;63208;52.178;21.016;2022-12-07T01:43:26;10.67;;;6.80;;
17032;SDS011;63208;52.178;21.016;2022-12-07T01:45:54;9.57;;;5.33;;
17032;SDS011;63208;52.178;21.016;2022-12-07T01:48:22;11.20;;;6.30;;
17032;SDS011;63208;52.178;21.016;2022-12-07T01:50:52;5.17;;;4.67;;
17032;SDS011;63208;52.178;21.016;2022-12-07T01:53:22;4.93;;;4.20;;
17032;SDS011;63208;52.178;21.016;2022-12-07T01:55:52;13.60;;;5.43;;
17032;SDS011;63208;52.178;21.016;2022-12-07T01:58:20;7.60;;;4.37;;
17032;SDS011;63208;52.178;21.016;2022-12-07T02:00:47;8.47;;;4.97;;
17032;SDS011;63208;52.178;21.016;2022-12-07T02:03:15;9.13;;;4.33;;
17032;SDS011;63208;52.178;21.016;2022-12-07T02:05:48;8.90;;;4.87;;
17032;SDS011;63208;52.178;21.016;2022-12-07T02:08:16;6.83;;;4.97;;
17032;SDS011;63208;52.178;21.016;2022-12-07T02:10:45;9.63;;;5.13;;
17032;SDS011;63208;52.178;21.016;2022-12-07T02:13:13;7.07;;;5.57;;
17032;SDS011;63208;52.178;21.016;2022-12-07T02:15:46;8.13;;;4.83;;
17032;SDS011;63208;52.178;21.016;2022-12-07T02:18:29;9.30;;;5.53;;
17032;SDS011;63208;52.178;21.016;2022-12-07T02:21:06;9.00;;;5.10;;
17032;SDS011;63208;52.178;21.016;2022-12-07T02:23:41;10.10;;;5.50;;
17032;SDS011;63208;52.178;21.016;2022-12-07T02:29:24;5.20;;;3.57;;
17032;SDS011;63208;52.178;21.016;2022-12-07T02:31:55;5.23;;;4.40;;
17032;SDS011;63208;52.178;21.016;2022-12-07T02:34:30;7.27;;;4.17;;
17032;SDS011;63208;52.178;21.016;2022-12-07T02:37:08;4.90;;;3.73;;
17032;SDS011;63208;52.178;21.016;2022-12-07T02:39:46;7.03;;;4.80;;
17032;SDS011;63208;52.178;21.016;2022-12-07T02:42:17;4.43;;;4.03;;
17032;SDS011;63208;52.178;21.016;2022-12-07T02:44:51;9.60;;;4.80;;
17032;SDS011;63208;52.178;21.016;2022-12-07T02:47:19;8.17;;;5.20;;
17032;SDS011;63208;52.178;21.016;2022-12-07T02:49:49;8.03;;;4.03;;
17032;SDS011;63208;52.178;21.016;2022-12-07T02:52:17;5.43;;;4.03;;
17032;SDS011;63208;52.178;21.016;2022-12-07T02:54:45;9.40;;;4.23;;
17032;SDS011;63208;52.178;21.016;2022-12-07T02:57:16;5.87;;;4.13;;
17032;SDS011;63208;52.178;21.016;2022-12-07T03:00:04;5.90;;;4.37;;
17032;SDS011;63208;52.178;21.016;2022-12-07T03:02:35;8.50;;;4.30;;
17032;SDS011;63208;52.178;21.016;2022-12-07T03:05:21;7.23;;;4.20;;
17032;SDS011;63208;52.178;21.016;2022-12-07T03:08:11;10.77;;;3.90;;
17032;SDS011;63208;52.178;21.016;2022-12-07T03:10:43;5.37;;;2.97;;
17032;SDS011;63208;52.178;21.016;2022-12-07T03:13:21;6.10;;;3.97;;
17032;SDS011;63208;52.178;21.016;2022-12-07T03:15:53;4.73;;;2.57;;
17032;SDS011;63208;52.178;21.016;2022-12-07T03:18:28;5.27;;;3.43;;
17032;SDS011;63208;52.178;21.016;2022-12-07T03:21:00;1.90;;;1.80;;
17032;SDS011;63208;52.178;21.016;2022-12-07T03:23:31;0.60;;;0.60;;
17032;SDS011;63208;52.178;21.016;2022-12-07T03:28:31;73.18;;;37.45;;
17032;SDS011;63208;52.178;21.016;2022-12-07T03:31:03;42.92;;;27.52;;
17032;SDS011;63208;52.178;21.016;2022-12-07T03:33:37;56.83;;;31.42;;
17032;SDS011;63208;52.178;21.016;2022-12-07T03:36:10;41.42;;;26.20;;
17032;SDS011;63208;52.178;21.016;2022-12-07T03:38:40;50.67;;;28.77;;
17032;SDS011;63208;52.178;21.016;2022-12-07T03:41:12;47.50;;;28.50;;
17032;SDS011;63208;52.178;21.016;2022-12-07T03:43:44;35.43;;;24.53;;
17032;SDS011;63208;52.178;21.016;2022-12-07T03:46:15;24.27;;;19.60;;
17032;SDS011;63208;52.178;21.016;2022-12-07T03:48:52;32.13;;;24.00;;
17032;SDS011;63208;52.178;21.016;2022-12-07T03:51:24;29.90;;;23.00;;
17032;SDS011;63208;52.178;21.016;2022-12-07T03:53:57;30.20;;;23.00;;
17032;SDS011;63208;52.178;21.016;2022-12-07T03:56:28;24.53;;;18.10;;
17032;SDS011;63208;52.178;21.016;2022-12-07T03:58:56;23.77;;;21.20;;
17032;SDS011;63208;52.178;21.016;2022-12-07T04:01:24;25.43;;;21.07;;
17032;SDS011;63208;52.178;21.016;2022-12-07T04:03:51;31.00;;;22.13;;
17032;SDS011;63208;52.178;21.016;2022-12-07T04:06:18;41.73;;;26.67;;
17032;SDS011;63208;52.178;21.016;2022-12-07T04:08:45;26.97;;;21.53;;
17032;SDS011;63208;52.178;21.016;2022-12-07T04:11:12;30.70;;;23.40;;
17032;SDS011;63208;52.178;21.016;2022-12-07T04:13:39;38.20;;;24.73;;
17032;SDS011;63208;52.178;21.016;2022-12-07T04:16:25;37.00;;;25.17;;
17032;SDS011;63208;52.178;21.016;2022-12-07T04:18:52;36.67;;;24.87;;
17032;SDS011;63208;52.178;21.016;2022-12-07T04:21:19;32.17;;;22.70;;
17032;SDS011;63208;52.178;21.016;2022-12-07T04:23:46;0.47;;;0.47;;
17032;SDS011;63208;52.178;21.016;2022-12-07T04:26:13;3.10;;;3.00;;
17032;SDS011;63208;52.178;21.016;2022-12-07T04:28:39;2.97;;;2.77;;
17032;SDS011;63208;52.178;21.016;2022-12-07T04:33:34;44.90;;;32.53;;
17032;SDS011;63208;52.178;21.016;2022-12-07T04:36:01;31.03;;;22.47;;
17032;SDS011;63208;52.178;21.016;2022-12-07T04:38:29;35.03;;;25.23;;
17032;SDS011;63208;52.178;21.016;2022-12-07T04:40:55;30.98;;;22.98;;
17032;SDS011;63208;52.178;21.016;2022-12-07T04:43:22;28.93;;;21.87;;
17032;SDS011;63208;52.178;21.016;2022-12-07T04:45:49;27.30;;;21.55;;
17032;SDS011;63208;52.178;21.016;2022-12-07T04:48:16;25.27;;;20.60;;
17032;SDS011;63208;52.178;21.016;2022-12-07T04:50:47;22.67;;;19.50;;
17032;SDS011;63208;52.178;21.016;2022-12-07T04:53:15;21.02;;;18.83;;
17032;SDS011;63208;52.178;21.016;2022-12-07T04:55:42;21.77;;;19.07;;
17032;SDS011;63208;52.178;21.016;2022-12-07T04:58:09;26.07;;;21.50;;
17032;SDS011;63208;52.178;21.016;2022-12-07T05:00:37;24.10;;;21.00;;
17032;SDS011;63208;52.178;21.016;2022-12-07T05:03:04;27.10;;;21.80;;
17032;SDS011;63208;52.178;21.016;2022-12-07T05:05:31;29.03;;;22.23;;
17032;SDS011;63208;52.178;21.016;2022-12-07T05:08:00;26.02;;;20.75;;
17032;SDS011;63208;52.178;21.016;2022-12-07T05:10:27;31.83;;;23.67;;
17032;SDS011;63208;52.178;21.016;2022-12-07T05:12:53;29.98;;;23.25;;
17032;SDS011;63208;52.178;21.016;2022-12-07T05:15:20;32.53;;;23.43;;
17032;SDS011;63208;52.178;21.016;2022-12-07T05:17:47;29.73;;;22.08;;
17032;SDS011;63208;52.178;21.016;2022-12-07T05:22:41;76.20;;;38.90;;
17032;SDS011;63208;52.178;21.016;2022-12-07T05:25:09;59.83;;;31.15;;
17032;SDS011;63208;52.178;21.016;2022-12-07T05:27:36;56.80;;;32.60;;
17032;SDS011;63208;52.178;21.016;2022-12-07T05:30:04;64.22;;;31.35;;
17032;SDS011;63208;52.178;21.016;2022-12-07T05:32:32;77.07;;;36.70;;
17032;SDS011;63208;52.178;21.016;2022-12-07T05:34:59;79.28;;;36.70;;
17032;SDS011;63208;52.178;21.016;2022-12-07T05:37:25;74.95;;;33.67;;
17032;SDS011;63208;52.178;21.016;2022-12-07T05:39:52;72.90;;;34.53;;
17032;SDS011;63208;52.178;21.016;2022-12-07T05:42:21;74.88;;;35.83;;
17032;SDS011;63208;52.178;21.016;2022-12-07T05:44:47;88.23;;;37.20;;
17032;SDS011;63208;52.178;21.016;2022-12-07T05:47:14;88.63;;;38.08;;
17032;SDS011;63208;52.178;21.016;2022-12-07T05:49:42;100.18;;;43.85;;
17032;SDS011;63208;52.178;21.016;2022-12-07T05:52:09;100.83;;;40.43;;
17032;SDS011;63208;52.178;21.016;2022-12-07T05:54:36;92.15;;;39.17;;
17032;SDS011;63208;52.178;21.016;2022-12-07T05:57:03;84.43;;;37.92;;
17032;SDS011;63208;52.178;21.016;2022-12-07T05:59:31;74.65;;;34.30;;
17032;SDS011;63208;52.178;21.016;2022-12-07T06:01:58;67.07;;;32.28;;
17032;SDS011;63208;52.178;21.016;2022-12-07T06:04:26;72.10;;;33.85;;
17032;SDS011;63208;52.178;21.016;2022-12-07T06:06:55;74.22;;;35.20;;
17032;SDS011;63208;52.178;21.016;2022-12-07T06:09:24;75.18;;;33.92;;
17032;SDS011;63208;52.178;21.016;2022-12-07T06:11:52;76.53;;;34.80;;
17032;SDS011;63208;52.178;21.016;2022-12-07T06:14:51;76.32;;;34.90;;
17032;SDS011;63208;52.178;21.016;2022-12-07T06:17:18;76.28;;;34.80;;
17032;SDS011;63208;52.178;21.016;2022-12-07T06:20:08;92.38;;;39.92;;
17032;SDS011;63208;52.178;21.016;2022-12-07T06:29:19;88.25;;;38.30;;
17032;SDS011;63208;52.178;21.016;2022-12-07T06:32:12;79.82;;;38.05;;
17032;SDS011;63208;52.178;21.016;2022-12-07T06:34:39;58.10;;;33.05;;
17032;SDS011;63208;52.178;21.016;2022-12-07T06:37:06;61.67;;;32.45;;
17032;SDS011;63208;52.178;21.016;2022-12-07T06:39:32;58.33;;;32.85;;
17032;SDS011;63208;52.178;21.016;2022-12-07T06:42:08;56.15;;;32.10;;
17032;SDS011;63208;52.178;21.016;2022-12-07T06:44:38;64.30;;;43.50;;
17032;SDS011;63208;52.178;21.016;2022-12-07T06:50:15;36.50;;;27.63;;
17032;SDS011;63208;52.178;21.016;2022-12-07T06:55:33;25.10;;;20.77;;
17032;SDS011;63208;52.178;21.016;2022-12-07T06:58:00;25.85;;;21.05;;
17032;SDS011;63208;52.178;21.016;2022-12-07T07:00:27;34.30;;;25.93;;
17032;SDS011;63208;52.178;21.016;2022-12-07T07:02:54;40.70;;;26.67;;
17032;SDS011;63208;52.178;21.016;2022-12-07T07:05:23;12.40;;;11.30;;
17032;SDS011;63208;52.178;21.016;2022-12-07T07:10:35;156.27;;;108.80;;
17032;SDS011;63208;52.178;21.016;2022-12-07T07:13:03;140.90;;;43.80;;
17032;SDS011;63208;52.178;21.016;2022-12-07T07:15:31;139.57;;;63.88;;
17032;SDS011;63208;52.178;21.016;2022-12-07T07:17:58;105.07;;;95.95;;
17032;SDS011;63208;52.178;21.016;2022-12-07T07:20:27;106.90;;;96.50;;
17032;SDS011;63208;52.178;21.016;2022-12-07T07:22:54;129.80;;;87.83;;
17032;SDS011;63208;52.178;21.016;2022-12-07T07:25:21;171.40;;;153.17;;
17032;SDS011;63208;52.178;21.016;2022-12-07T07:27:48;169.07;;;82.70;;
17032;SDS011;63208;52.178;21.016;2022-12-07T07:30:15;171.63;;;105.50;;
17032;SDS011;63208;52.178;21.016;2022-12-07T07:32:42;26.85;;;24.35;;
17032;SDS011;63208;52.178;21.016;2022-12-07T07:35:09;50.80;;;47.53;;
17032;SDS011;63208;52.178;21.016;2022-12-07T07:37:38;104.65;;;81.78;;
17032;SDS011;63208;52.178;21.016;2022-12-07T07:40:06;52.30;;;49.53;;
17032;SDS011;63208;52.178;21.016;2022-12-07T07:45:00;12.80;;;11.55;;
17032;SDS011;63208;52.178;21.016;2022-12-07T07:50:30;13.10;;;10.38;;
17032;SDS011;63208;52.178;21.016;2022-12-07T07:52:58;16.47;;;15.23;;
17032;SDS011;63208;52.178;21.016;2022-12-07T07:55:25;16.88;;;11.60;;
17032;SDS011;63208;52.178;21.016;2022-12-07T07:57:52;25.25;;;19.90;;
17032;SDS011;63208;52.178;21.016;2022-12-07T08:00:20;8.75;;;6.57;;
17032;SDS011;63208;52.178;21.016;2022-12-07T08:42:42;22.35;;;17.83;;
17032;SDS011;63208;52.178;21.016;2022-12-07T08:45:11;16.57;;;15.13;;
17032;SDS011;63208;52.178;21.016;2022-12-07T08:47:41;15.40;;;12.52;;
17032;SDS011;63208;52.178;21.016;2022-12-07T08:50:10;12.63;;;11.43;;
17032;SDS011;63208;52.178;21.016;2022-12-07T08:52:38;26.55;;;24.25;;
17032;SDS011;63208;52.178;21.016;2022-12-07T08:55:07;38.85;;;35.63;;
17032;SDS011;63208;52.178;21.016;2022-12-07T08:57:37;21.43;;;19.53;;
17032;SDS011;63208;52.178;21.016;2022-12-07T09:00:07;12.30;;;11.27;;
17032;SDS011;63208;52.178;21.016;2022-12-07T09:02:35;18.25;;;16.20;;
17032;SDS011;63208;52.178;21.016;2022-12-07T09:05:02;16.52;;;15.30;;
17032;SDS011;63208;52.178;21.016;2022-12-07T09:10:21;15.33;;;14.07;;
17032;SDS011;63208;52.178;21.016;2022-12-07T09:12:48;84.07;;;78.47;;
17032;SDS011;63208;52.178;21.016;2022-12-07T09:15:16;47.00;;;43.07;;
17032;SDS011;63208;52.178;21.016;2022-12-07T09:17:43;12.60;;;11.43;;
17032;SDS011;63208;52.178;21.016;2022-12-07T09:20:11;20.03;;;18.13;;
17032;SDS011;63208;52.178;21.016;2022-12-07T09:22:38;47.33;;;17.15;;
17032;SDS011;63208;52.178;21.016;2022-12-07T09:25:06;225.02;;;45.72;;
17032;SDS011;63208;52.178;21.016;2022-12-07T09:27:33;222.52;;;39.83;;
17032;SDS011;63208;52.178;21.016;2022-12-07T09:30:00;259.20;;;223.03;;
17032;SDS011;63208;52.178;21.016;2022-12-07T09:32:29;294.67;;;96.78;;
17032;SDS011;63208;52.178;21.016;2022-12-07T09:34:56;303.33;;;124.07;;
17032;SDS011;63208;52.178;21.016;2022-12-07T09:37:23;337.37;;;222.20;;
17032;SDS011;63208;52.178;21.016;2022-12-07T09:39:50;160.93;;;144.20;;
17032;SDS011;63208;52.178;21.016;2022-12-07T09:42:25;167.15;;;158.68;;
17032;SDS011;63208;52.178;21.016;2022-12-07T09:44:55;27.80;;;25.80;;
17032;SDS011;63208;52.178;21.016;2022-12-07T09:47:23;15.25;;;13.43;;
17032;SDS011;63208;52.178;21.016;2022-12-07T09:49:52;113.05;;;45.97;;
17032;SDS011;63208;52.178;21.016;2022-12-07T09:52:29;453.00;;;387.63;;
17032;SDS011;63208;52.178;21.016;2022-12-07T09:54:57;210.50;;;39.13;;
17032;SDS011;63208;52.178;21.016;2022-12-07T09:57:26;270.65;;;40.47;;
17032;SDS011;63208;52.178;21.016;2022-12-07T09:59:55;238.90;;;40.88;;
17032;SDS011;63208;52.178;21.016;2022-12-07T10:02:30;238.88;;;44.90;;
17032;SDS011;63208;52.178;21.016;2022-12-07T10:05:05;238.95;;;43.42;;
17032;SDS011;63208;52.178;21.016;2022-12-07T10:07:33;255.40;;;55.05;;
17032;SDS011;63208;52.178;21.016;2022-12-07T10:10:02;35.85;;;32.40;;
17032;SDS011;63208;52.178;21.016;2022-12-07T10:12:30;258.60;;;48.83;;
17032;SDS011;63208;52.178;21.016;2022-12-07T10:15:38;235.55;;;44.72;;
17032;SDS011;63208;52.178;21.016;2022-12-07T10:18:16;269.00;;;47.33;;
17032;SDS011;63208;52.178;21.016;2022-12-07T10:21:03;262.17;;;40.20;;
17032;SDS011;63208;52.178;21.016;2022-12-07T10:31:18;6.70;;;4.43;;
17032;SDS011;63208;52.178;21.016;2022-12-07T11:02:19;13.33;;;5.07;;
